sensor_id;sensor_type;location;lat;lon;timestamp;P1;durP1;ratioP1;P2;durP2;ratioP2
30287;SDS011;17103;48.316;11.558;2023-07-13T00:01:12;3.78;;;2.08;;
30287;SDS011;17103;48.316;11.558;2023-07-13T00:03:38;3.20;;;2.25;;
30287;SDS011;17103;48.316;11.558;2023-07-13T00:06:06;4.95;;;2.60;;
30287;SDS011;17103;48.316;11.558;2023-07-13T00:08:33;2.95;;;2.30;;
30287;SDS011;17103;48.316;11.558;2023-07-13T00:11:02;3.08;;;2.22;;
30287;SDS011;17103;48.316;11.558;2023-07-13T00:13:29;4.50;;;2.30;;
30287;SDS011;17103;48.316;11.558;2023-07-13T00:15:56;2.78;;;1.90;;
30287;SDS011;17103;48.316;11.558;2023-07-13T00:18:23;3.45;;;2.05;;
30287;SDS011;17103;48.316;11.558;2023-07-13T00:20:49;4.50;;;1.90;;
30287;SDS011;17103;48.316;11.558;2023-07-13T00:23:15;3.22;;;1.98;;
30287;SDS011;17103;48.316;11.558;2023-07-13T00:25:42;2.55;;;1.80;;
30287;SDS011;17103;48.316;11.558;2023-07-13T00:28:08;2.80;;;2.00;;
30287;SDS011;17103;48.316;11.558;2023-07-13T00:30:33;3.58;;;1.90;;
30287;SDS011;17103;48.316;11.558;2023-07-13T00:32:59;3.88;;;2.25;;
30287;SDS011;17103;48.316;11.558;2023-07-13T00:35:26;3.50;;;1.92;;
30287;SDS011;17103;48.316;11.558;2023-07-13T00:37:55;3.05;;;1.77;;
30287;SDS011;17103;48.316;11.558;2023-07-13T00:40:21;3.67;;;2.40;;
30287;SDS011;17103;48.316;11.558;2023-07-13T00:42:47;3.47;;;1.90;;
30287;SDS011;17103;48.316;11.558;2023-07-13T00:47:38;5.28;;;2.83;;
30287;SDS011;17103;48.316;11.558;2023-07-13T00:50:06;2.92;;;1.80;;
30287;SDS011;17103;48.316;11.558;2023-07-13T00:52:34;2.67;;;1.70;;
30287;SDS011;17103;48.316;11.558;2023-07-13T00:55:03;4.13;;;1.70;;
30287;SDS011;17103;48.316;11.558;2023-07-13T00:57:29;5.15;;;2.10;;
30287;SDS011;17103;48.316;11.558;2023-07-13T00:59:55;3.10;;;1.63;;
30287;SDS011;17103;48.316;11.558;2023-07-13T01:02:24;5.03;;;1.98;;
30287;SDS011;17103;48.316;11.558;2023-07-13T01:04:51;7.35;;;2.83;;
30287;SDS011;17103;48.316;11.558;2023-07-13T01:07:17;4.57;;;2.17;;
30287;SDS011;17103;48.316;11.558;2023-07-13T01:09:44;6.90;;;3.13;;
30287;SDS011;17103;48.316;11.558;2023-07-13T01:12:10;4.07;;;2.00;;
30287;SDS011;17103;48.316;11.558;2023-07-13T01:14:36;4.70;;;2.22;;
30287;SDS011;17103;48.316;11.558;2023-07-13T01:17:02;5.45;;;1.92;;
30287;SDS011;17103;48.316;11.558;2023-07-13T01:19:36;4.13;;;1.73;;
30287;SDS011;17103;48.316;11.558;2023-07-13T01:22:17;2.90;;;2.10;;
30287;SDS011;17103;48.316;11.558;2023-07-13T01:24:46;4.40;;;1.90;;
30287;SDS011;17103;48.316;11.558;2023-07-13T01:27:14;5.03;;;1.98;;
30287;SDS011;17103;48.316;11.558;2023-07-13T01:29:43;5.95;;;1.70;;
30287;SDS011;17103;48.316;11.558;2023-07-13T01:32:18;4.18;;;1.75;;
30287;SDS011;17103;48.316;11.558;2023-07-13T01:34:51;4.82;;;2.17;;
30287;SDS011;17103;48.316;11.558;2023-07-13T01:37:19;3.90;;;2.08;;
30287;SDS011;17103;48.316;11.558;2023-07-13T01:39:46;5.20;;;1.95;;
30287;SDS011;17103;48.316;11.558;2023-07-13T01:42:12;2.67;;;1.77;;
30287;SDS011;17103;48.316;11.558;2023-07-13T01:44:39;3.85;;;1.83;;
30287;SDS011;17103;48.316;11.558;2023-07-13T01:47:05;9.05;;;2.70;;
30287;SDS011;17103;48.316;11.558;2023-07-13T01:49:30;5.35;;;2.03;;
30287;SDS011;17103;48.316;11.558;2023-07-13T01:51:56;2.95;;;1.80;;
30287;SDS011;17103;48.316;11.558;2023-07-13T01:54:22;2.88;;;1.52;;
30287;SDS011;17103;48.316;11.558;2023-07-13T01:56:47;4.22;;;1.80;;
30287;SDS011;17103;48.316;11.558;2023-07-13T01:59:13;5.03;;;2.47;;
30287;SDS011;17103;48.316;11.558;2023-07-13T02:01:39;3.40;;;2.00;;
30287;SDS011;17103;48.316;11.558;2023-07-13T02:04:04;3.45;;;1.75;;
30287;SDS011;17103;48.316;11.558;2023-07-13T02:06:30;2.67;;;1.77;;
30287;SDS011;17103;48.316;11.558;2023-07-13T02:08:56;3.88;;;1.90;;
30287;SDS011;17103;48.316;11.558;2023-07-13T02:11:22;4.25;;;2.30;;
30287;SDS011;17103;48.316;11.558;2023-07-13T02:13:48;3.50;;;1.80;;
30287;SDS011;17103;48.316;11.558;2023-07-13T02:16:13;3.90;;;2.40;;
30287;SDS011;17103;48.316;11.558;2023-07-13T02:18:39;3.42;;;1.92;;
30287;SDS011;17103;48.316;11.558;2023-07-13T02:21:05;4.05;;;1.75;;
30287;SDS011;17103;48.316;11.558;2023-07-13T02:23:30;2.72;;;2.00;;
30287;SDS011;17103;48.316;11.558;2023-07-13T02:25:56;4.68;;;2.42;;
30287;SDS011;17103;48.316;11.558;2023-07-13T02:28:23;5.43;;;2.33;;
30287;SDS011;17103;48.316;11.558;2023-07-13T02:30:48;4.03;;;1.83;;
30287;SDS011;17103;48.316;11.558;2023-07-13T02:33:14;5.28;;;2.65;;
30287;SDS011;17103;48.316;11.558;2023-07-13T02:35:40;4.25;;;1.80;;
30287;SDS011;17103;48.316;11.558;2023-07-13T02:38:06;3.72;;;2.08;;
30287;SDS011;17103;48.316;11.558;2023-07-13T02:40:32;5.30;;;1.98;;
30287;SDS011;17103;48.316;11.558;2023-07-13T02:43:01;3.60;;;2.25;;
30287;SDS011;17103;48.316;11.558;2023-07-13T02:45:27;6.65;;;2.28;;
30287;SDS011;17103;48.316;11.558;2023-07-13T02:47:53;3.33;;;2.35;;
30287;SDS011;17103;48.316;11.558;2023-07-13T02:50:19;4.53;;;2.58;;
30287;SDS011;17103;48.316;11.558;2023-07-13T02:52:44;4.10;;;2.38;;
30287;SDS011;17103;48.316;11.558;2023-07-13T02:55:10;2.63;;;2.17;;
30287;SDS011;17103;48.316;11.558;2023-07-13T02:57:36;5.32;;;2.75;;
30287;SDS011;17103;48.316;11.558;2023-07-13T03:00:02;5.32;;;2.88;;
30287;SDS011;17103;48.316;11.558;2023-07-13T03:02:32;4.95;;;2.88;;
30287;SDS011;17103;48.316;11.558;2023-07-13T03:04:59;5.43;;;2.88;;
30287;SDS011;17103;48.316;11.558;2023-07-13T03:07:24;5.88;;;3.33;;
30287;SDS011;17103;48.316;11.558;2023-07-13T03:09:59;6.78;;;3.35;;
30287;SDS011;17103;48.316;11.558;2023-07-13T03:12:25;5.55;;;3.00;;
30287;SDS011;17103;48.316;11.558;2023-07-13T03:14:51;5.25;;;2.92;;
30287;SDS011;17103;48.316;11.558;2023-07-13T03:17:17;4.47;;;3.17;;
30287;SDS011;17103;48.316;11.558;2023-07-13T03:19:44;5.25;;;3.78;;
30287;SDS011;17103;48.316;11.558;2023-07-13T03:22:14;6.70;;;3.90;;
30287;SDS011;17103;48.316;11.558;2023-07-13T03:24:41;5.30;;;2.75;;
30287;SDS011;17103;48.316;11.558;2023-07-13T03:27:06;4.05;;;2.80;;
30287;SDS011;17103;48.316;11.558;2023-07-13T03:29:32;5.13;;;3.10;;
30287;SDS011;17103;48.316;11.558;2023-07-13T03:31:59;3.92;;;3.20;;
30287;SDS011;17103;48.316;11.558;2023-07-13T03:34:24;5.40;;;2.88;;
30287;SDS011;17103;48.316;11.558;2023-07-13T03:36:50;6.65;;;3.50;;
30287;SDS011;17103;48.316;11.558;2023-07-13T03:39:18;5.97;;;3.00;;
30287;SDS011;17103;48.316;11.558;2023-07-13T03:41:44;5.57;;;3.08;;
30287;SDS011;17103;48.316;11.558;2023-07-13T03:44:09;4.75;;;3.20;;
30287;SDS011;17103;48.316;11.558;2023-07-13T03:46:36;3.20;;;2.45;;
30287;SDS011;17103;48.316;11.558;2023-07-13T03:49:01;5.57;;;3.67;;
30287;SDS011;17103;48.316;11.558;2023-07-13T03:51:28;3.70;;;2.72;;
30287;SDS011;17103;48.316;11.558;2023-07-13T03:53:54;6.50;;;2.65;;
30287;SDS011;17103;48.316;11.558;2023-07-13T03:56:19;5.03;;;2.80;;
30287;SDS011;17103;48.316;11.558;2023-07-13T03:58:46;5.28;;;2.72;;
30287;SDS011;17103;48.316;11.558;2023-07-13T04:01:13;6.70;;;2.63;;
30287;SDS011;17103;48.316;11.558;2023-07-13T04:03:42;4.00;;;2.70;;
30287;SDS011;17103;48.316;11.558;2023-07-13T04:06:15;5.45;;;2.90;;
30287;SDS011;17103;48.316;11.558;2023-07-13T04:08:52;4.35;;;3.13;;
30287;SDS011;17103;48.316;11.558;2023-07-13T04:11:20;3.40;;;2.47;;
30287;SDS011;17103;48.316;11.558;2023-07-13T04:13:46;4.45;;;3.05;;
30287;SDS011;17103;48.316;11.558;2023-07-13T04:16:13;2.67;;;2.28;;
30287;SDS011;17103;48.316;11.558;2023-07-13T04:18:41;4.50;;;2.72;;
30287;SDS011;17103;48.316;11.558;2023-07-13T04:21:07;3.47;;;2.22;;
30287;SDS011;17103;48.316;11.558;2023-07-13T04:23:34;6.95;;;3.42;;
30287;SDS011;17103;48.316;11.558;2023-07-13T04:26:00;5.63;;;2.70;;
30287;SDS011;17103;48.316;11.558;2023-07-13T04:28:26;7.20;;;2.42;;
30287;SDS011;17103;48.316;11.558;2023-07-13T04:30:52;5.90;;;2.65;;
30287;SDS011;17103;48.316;11.558;2023-07-13T04:33:18;4.72;;;2.50;;
30287;SDS011;17103;48.316;11.558;2023-07-13T04:35:47;5.68;;;3.15;;
30287;SDS011;17103;48.316;11.558;2023-07-13T04:38:22;4.13;;;3.05;;
30287;SDS011;17103;48.316;11.558;2023-07-13T04:40:49;4.45;;;2.45;;
30287;SDS011;17103;48.316;11.558;2023-07-13T04:43:17;6.63;;;2.63;;
30287;SDS011;17103;48.316;11.558;2023-07-13T04:45:43;2.85;;;2.45;;
30287;SDS011;17103;48.316;11.558;2023-07-13T04:48:08;5.65;;;3.60;;
30287;SDS011;17103;48.316;11.558;2023-07-13T04:50:37;4.78;;;2.47;;
30287;SDS011;17103;48.316;11.558;2023-07-13T04:53:03;3.28;;;2.40;;
30287;SDS011;17103;48.316;11.558;2023-07-13T04:55:29;3.20;;;2.38;;
30287;SDS011;17103;48.316;11.558;2023-07-13T04:57:56;4.15;;;2.50;;
30287;SDS011;17103;48.316;11.558;2023-07-13T05:00:23;4.93;;;2.00;;
30287;SDS011;17103;48.316;11.558;2023-07-13T05:02:49;4.00;;;2.63;;
30287;SDS011;17103;48.316;11.558;2023-07-13T05:05:16;7.18;;;2.83;;
30287;SDS011;17103;48.316;11.558;2023-07-13T05:07:42;3.33;;;2.28;;
30287;SDS011;17103;48.316;11.558;2023-07-13T05:10:08;3.78;;;2.78;;
30287;SDS011;17103;48.316;11.558;2023-07-13T05:12:34;2.50;;;2.17;;
30287;SDS011;17103;48.316;11.558;2023-07-13T05:15:00;3.85;;;2.40;;
30287;SDS011;17103;48.316;11.558;2023-07-13T05:17:27;2.80;;;2.13;;
30287;SDS011;17103;48.316;11.558;2023-07-13T05:19:52;4.28;;;2.08;;
30287;SDS011;17103;48.316;11.558;2023-07-13T05:22:18;3.47;;;2.60;;
30287;SDS011;17103;48.316;11.558;2023-07-13T05:24:43;7.10;;;2.72;;
30287;SDS011;17103;48.316;11.558;2023-07-13T05:27:09;4.05;;;2.33;;
30287;SDS011;17103;48.316;11.558;2023-07-13T05:29:35;5.45;;;2.40;;
30287;SDS011;17103;48.316;11.558;2023-07-13T05:32:00;3.90;;;2.30;;
30287;SDS011;17103;48.316;11.558;2023-07-13T05:34:26;3.05;;;2.03;;
30287;SDS011;17103;48.316;11.558;2023-07-13T05:36:52;3.70;;;2.00;;
30287;SDS011;17103;48.316;11.558;2023-07-13T05:39:18;5.75;;;2.65;;
30287;SDS011;17103;48.316;11.558;2023-07-13T05:41:44;4.07;;;2.38;;
30287;SDS011;17103;48.316;11.558;2023-07-13T05:44:10;3.05;;;2.00;;
30287;SDS011;17103;48.316;11.558;2023-07-13T05:46:35;4.45;;;2.22;;
30287;SDS011;17103;48.316;11.558;2023-07-13T05:49:01;3.88;;;2.40;;
30287;SDS011;17103;48.316;11.558;2023-07-13T05:51:28;9.23;;;3.20;;
30287;SDS011;17103;48.316;11.558;2023-07-13T05:53:54;3.90;;;1.95;;
30287;SDS011;17103;48.316;11.558;2023-07-13T05:56:20;6.82;;;2.75;;
30287;SDS011;17103;48.316;11.558;2023-07-13T05:58:47;5.05;;;2.30;;
30287;SDS011;17103;48.316;11.558;2023-07-13T06:01:15;5.30;;;3.35;;
30287;SDS011;17103;48.316;11.558;2023-07-13T06:03:41;2.72;;;1.88;;
30287;SDS011;17103;48.316;11.558;2023-07-13T06:06:07;6.50;;;2.35;;
30287;SDS011;17103;48.316;11.558;2023-07-13T06:08:35;4.22;;;2.28;;
30287;SDS011;17103;48.316;11.558;2023-07-13T06:11:03;4.43;;;2.17;;
30287;SDS011;17103;48.316;11.558;2023-07-13T06:13:32;4.45;;;2.55;;
30287;SDS011;17103;48.316;11.558;2023-07-13T06:15:58;6.70;;;2.13;;
30287;SDS011;17103;48.316;11.558;2023-07-13T06:18:24;6.00;;;2.03;;
30287;SDS011;17103;48.316;11.558;2023-07-13T06:20:49;8.65;;;2.33;;
30287;SDS011;17103;48.316;11.558;2023-07-13T06:23:15;5.68;;;2.15;;
30287;SDS011;17103;48.316;11.558;2023-07-13T06:25:41;3.13;;;1.75;;
30287;SDS011;17103;48.316;11.558;2023-07-13T06:28:07;3.67;;;1.92;;
30287;SDS011;17103;48.316;11.558;2023-07-13T06:30:33;3.08;;;1.77;;
30287;SDS011;17103;48.316;11.558;2023-07-13T06:33:00;3.88;;;1.40;;
30287;SDS011;17103;48.316;11.558;2023-07-13T06:35:25;4.00;;;2.17;;
30287;SDS011;17103;48.316;11.558;2023-07-13T06:37:51;4.28;;;1.60;;
30287;SDS011;17103;48.316;11.558;2023-07-13T06:40:17;8.38;;;1.85;;
30287;SDS011;17103;48.316;11.558;2023-07-13T06:42:42;3.78;;;1.20;;
30287;SDS011;17103;48.316;11.558;2023-07-13T06:45:08;3.85;;;1.70;;
30287;SDS011;17103;48.316;11.558;2023-07-13T06:47:34;3.53;;;1.80;;
30287;SDS011;17103;48.316;11.558;2023-07-13T06:50:00;11.13;;;1.80;;
30287;SDS011;17103;48.316;11.558;2023-07-13T06:52:26;12.85;;;3.20;;
30287;SDS011;17103;48.316;11.558;2023-07-13T06:54:52;7.65;;;2.03;;
30287;SDS011;17103;48.316;11.558;2023-07-13T06:57:17;5.13;;;1.55;;
30287;SDS011;17103;48.316;11.558;2023-07-13T06:59:43;3.00;;;1.65;;
30287;SDS011;17103;48.316;11.558;2023-07-13T07:02:09;6.78;;;2.08;;
30287;SDS011;17103;48.316;11.558;2023-07-13T07:04:36;7.85;;;2.67;;
30287;SDS011;17103;48.316;11.558;2023-07-13T07:07:01;2.92;;;1.83;;
30287;SDS011;17103;48.316;11.558;2023-07-13T07:09:28;2.67;;;1.60;;
30287;SDS011;17103;48.316;11.558;2023-07-13T07:11:56;4.75;;;1.85;;
30287;SDS011;17103;48.316;11.558;2023-07-13T07:14:22;3.33;;;1.88;;
30287;SDS011;17103;48.316;11.558;2023-07-13T07:16:48;3.55;;;1.80;;
30287;SDS011;17103;48.316;11.558;2023-07-13T07:19:14;3.17;;;1.48;;
30287;SDS011;17103;48.316;11.558;2023-07-13T07:21:40;2.78;;;1.40;;
30287;SDS011;17103;48.316;11.558;2023-07-13T07:24:06;4.75;;;2.10;;
30287;SDS011;17103;48.316;11.558;2023-07-13T07:26:32;6.05;;;1.98;;
30287;SDS011;17103;48.316;11.558;2023-07-13T07:28:59;6.50;;;1.70;;
30287;SDS011;17103;48.316;11.558;2023-07-13T07:31:25;29.02;;;4.32;;
30287;SDS011;17103;48.316;11.558;2023-07-13T07:33:51;9.80;;;1.77;;
30287;SDS011;17103;48.316;11.558;2023-07-13T07:36:16;5.07;;;1.92;;
30287;SDS011;17103;48.316;11.558;2023-07-13T07:38:43;7.13;;;1.70;;
30287;SDS011;17103;48.316;11.558;2023-07-13T07:41:08;9.07;;;2.22;;
30287;SDS011;17103;48.316;11.558;2023-07-13T07:43:34;4.65;;;1.67;;
30287;SDS011;17103;48.316;11.558;2023-07-13T07:46:02;2.95;;;1.50;;
30287;SDS011;17103;48.316;11.558;2023-07-13T07:48:28;6.35;;;1.88;;
30287;SDS011;17103;48.316;11.558;2023-07-13T07:50:54;3.65;;;1.60;;
30287;SDS011;17103;48.316;11.558;2023-07-13T07:53:20;2.97;;;1.50;;
30287;SDS011;17103;48.316;11.558;2023-07-13T07:55:45;3.47;;;2.15;;
30287;SDS011;17103;48.316;11.558;2023-07-13T07:58:12;4.15;;;1.83;;
30287;SDS011;17103;48.316;11.558;2023-07-13T08:00:38;1.92;;;1.30;;
30287;SDS011;17103;48.316;11.558;2023-07-13T08:03:03;4.35;;;1.35;;
30287;SDS011;17103;48.316;11.558;2023-07-13T08:05:29;6.13;;;1.75;;
30287;SDS011;17103;48.316;11.558;2023-07-13T08:07:56;2.63;;;1.40;;
30287;SDS011;17103;48.316;11.558;2023-07-13T08:10:21;3.30;;;1.48;;
30287;SDS011;17103;48.316;11.558;2023-07-13T08:12:47;1.80;;;1.30;;
30287;SDS011;17103;48.316;11.558;2023-07-13T08:15:14;2.55;;;1.40;;
30287;SDS011;17103;48.316;11.558;2023-07-13T08:17:41;11.60;;;2.55;;
30287;SDS011;17103;48.316;11.558;2023-07-13T08:20:06;3.13;;;1.35;;
30287;SDS011;17103;48.316;11.558;2023-07-13T08:22:34;4.75;;;1.27;;
30287;SDS011;17103;48.316;11.558;2023-07-13T08:25:00;3.80;;;1.38;;
30287;SDS011;17103;48.316;11.558;2023-07-13T08:27:26;3.97;;;1.20;;
30287;SDS011;17103;48.316;11.558;2023-07-13T08:29:53;2.53;;;1.52;;
30287;SDS011;17103;48.316;11.558;2023-07-13T08:32:20;4.50;;;1.50;;
30287;SDS011;17103;48.316;11.558;2023-07-13T08:34:47;13.60;;;2.55;;
30287;SDS011;17103;48.316;11.558;2023-07-13T08:37:13;27.48;;;4.97;;
30287;SDS011;17103;48.316;11.558;2023-07-13T08:39:39;7.93;;;1.90;;
30287;SDS011;17103;48.316;11.558;2023-07-13T08:42:05;3.63;;;1.13;;
30287;SDS011;17103;48.316;11.558;2023-07-13T08:44:40;3.85;;;1.45;;
30287;SDS011;17103;48.316;11.558;2023-07-13T08:47:15;5.88;;;1.30;;
30287;SDS011;17103;48.316;11.558;2023-07-13T08:49:42;3.30;;;1.17;;
30287;SDS011;17103;48.316;11.558;2023-07-13T08:52:12;2.17;;;1.20;;
30287;SDS011;17103;48.316;11.558;2023-07-13T08:54:51;7.00;;;1.40;;
30287;SDS011;17103;48.316;11.558;2023-07-13T08:57:21;3.92;;;1.20;;
30287;SDS011;17103;48.316;11.558;2023-07-13T08:59:55;3.72;;;1.23;;
30287;SDS011;17103;48.316;11.558;2023-07-13T09:02:28;3.35;;;1.50;;
30287;SDS011;17103;48.316;11.558;2023-07-13T09:05:18;3.75;;;1.48;;
30287;SDS011;17103;48.316;11.558;2023-07-13T09:08:33;6.10;;;1.30;;
30287;SDS011;17103;48.316;11.558;2023-07-13T09:10:53;3.53;;;1.00;;
30287;SDS011;17103;48.316;11.558;2023-07-13T09:16:21;3.47;;;0.98;;
30287;SDS011;17103;48.316;11.558;2023-07-13T09:18:48;3.58;;;1.40;;
30287;SDS011;17103;48.316;11.558;2023-07-13T09:21:39;6.32;;;1.40;;
30287;SDS011;17103;48.316;11.558;2023-07-13T09:27:19;4.65;;;1.50;;
30287;SDS011;17103;48.316;11.558;2023-07-13T09:32:42;7.25;;;1.52;;
30287;SDS011;17103;48.316;11.558;2023-07-13T09:35:15;22.10;;;3.58;;
30287;SDS011;17103;48.316;11.558;2023-07-13T09:37:46;21.95;;;2.15;;
30287;SDS011;17103;48.316;11.558;2023-07-13T09:40:59;11.70;;;2.33;;
30287;SDS011;17103;48.316;11.558;2023-07-13T09:43:03;10.75;;;1.95;;
30287;SDS011;17103;48.316;11.558;2023-07-13T09:45:33;1.98;;;1.05;;
30287;SDS011;17103;48.316;11.558;2023-07-13T09:48:03;14.50;;;2.17;;
30287;SDS011;17103;48.316;11.558;2023-07-13T09:50:30;17.92;;;3.25;;
30287;SDS011;17103;48.316;11.558;2023-07-13T09:52:57;15.65;;;2.72;;
30287;SDS011;17103;48.316;11.558;2023-07-13T09:55:31;5.18;;;1.42;;
30287;SDS011;17103;48.316;11.558;2023-07-13T09:58:04;2.63;;;0.93;;
30287;SDS011;17103;48.316;11.558;2023-07-13T10:00:36;4.95;;;1.20;;
30287;SDS011;17103;48.316;11.558;2023-07-13T10:03:18;3.20;;;1.10;;
30287;SDS011;17103;48.316;11.558;2023-07-13T10:05:48;5.17;;;1.30;;
30287;SDS011;17103;48.316;11.558;2023-07-13T10:08:23;16.20;;;2.20;;
30287;SDS011;17103;48.316;11.558;2023-07-13T10:10:54;4.15;;;1.10;;
30287;SDS011;17103;48.316;11.558;2023-07-13T10:13:35;2.30;;;1.17;;
30287;SDS011;17103;48.316;11.558;2023-07-13T10:16:03;4.53;;;2.17;;
30287;SDS011;17103;48.316;11.558;2023-07-13T10:18:34;2.17;;;1.08;;
30287;SDS011;17103;48.316;11.558;2023-07-13T10:21:21;2.35;;;1.30;;
30287;SDS011;17103;48.316;11.558;2023-07-13T10:23:53;3.90;;;1.52;;
30287;SDS011;17103;48.316;11.558;2023-07-13T10:26:27;5.15;;;1.23;;
30287;SDS011;17103;48.316;11.558;2023-07-13T10:28:57;3.28;;;1.88;;
30287;SDS011;17103;48.316;11.558;2023-07-13T10:31:29;6.82;;;1.40;;
30287;SDS011;17103;48.316;11.558;2023-07-13T10:33:56;3.90;;;1.23;;
30287;SDS011;17103;48.316;11.558;2023-07-13T10:36:39;3.55;;;1.20;;
30287;SDS011;17103;48.316;11.558;2023-07-13T10:39:09;2.80;;;0.90;;
30287;SDS011;17103;48.316;11.558;2023-07-13T10:41:52;3.58;;;1.63;;
30287;SDS011;17103;48.316;11.558;2023-07-13T10:44:22;2.28;;;1.38;;
30287;SDS011;17103;48.316;11.558;2023-07-13T10:47:12;4.35;;;1.20;;
30287;SDS011;17103;48.316;11.558;2023-07-13T10:49:42;3.05;;;1.08;;
30287;SDS011;17103;48.316;11.558;2023-07-13T10:55:38;3.58;;;0.80;;
30287;SDS011;17103;48.316;11.558;2023-07-13T10:58:20;5.75;;;1.33;;
30287;SDS011;17103;48.316;11.558;2023-07-13T11:03:33;2.10;;;0.90;;
30287;SDS011;17103;48.316;11.558;2023-07-13T11:06:17;2.45;;;1.10;;
30287;SDS011;17103;48.316;11.558;2023-07-13T11:11:55;3.45;;;1.00;;
30287;SDS011;17103;48.316;11.558;2023-07-13T11:17:00;3.53;;;1.02;;
30287;SDS011;17103;48.316;11.558;2023-07-13T11:20:04;12.52;;;1.70;;
30287;SDS011;17103;48.316;11.558;2023-07-13T11:22:53;4.03;;;1.17;;
30287;SDS011;17103;48.316;11.558;2023-07-13T11:25:44;1.48;;;0.93;;
30287;SDS011;17103;48.316;11.558;2023-07-13T11:30:46;2.90;;;0.77;;
30287;SDS011;17103;48.316;11.558;2023-07-13T11:33:15;2.03;;;0.70;;
30287;SDS011;17103;48.316;11.558;2023-07-13T11:38:20;3.67;;;1.15;;
30287;SDS011;17103;48.316;11.558;2023-07-13T11:40:50;3.70;;;0.88;;
30287;SDS011;17103;48.316;11.558;2023-07-13T11:43:18;4.22;;;1.88;;
30287;SDS011;17103;48.316;11.558;2023-07-13T11:45:44;2.83;;;1.48;;
30287;SDS011;17103;48.316;11.558;2023-07-13T11:50:56;3.35;;;0.88;;
30287;SDS011;17103;48.316;11.558;2023-07-13T11:53:29;3.97;;;1.48;;
30287;SDS011;17103;48.316;11.558;2023-07-13T11:56:03;1.48;;;0.75;;
30287;SDS011;17103;48.316;11.558;2023-07-13T11:58:30;3.63;;;0.95;;
30287;SDS011;17103;48.316;11.558;2023-07-13T12:00:57;4.55;;;1.23;;
30287;SDS011;17103;48.316;11.558;2023-07-13T12:03:26;3.45;;;0.80;;
30287;SDS011;17103;48.316;11.558;2023-07-13T12:06:00;3.28;;;0.90;;
30287;SDS011;17103;48.316;11.558;2023-07-13T12:08:28;3.17;;;1.20;;
30287;SDS011;17103;48.316;11.558;2023-07-13T12:11:03;9.60;;;1.65;;
30287;SDS011;17103;48.316;11.558;2023-07-13T12:13:35;5.30;;;1.40;;
30287;SDS011;17103;48.316;11.558;2023-07-13T12:16:07;30.73;;;3.57;;
30287;SDS011;17103;48.316;11.558;2023-07-13T12:18:52;2.22;;;0.80;;
30287;SDS011;17103;48.316;11.558;2023-07-13T12:21:18;26.38;;;2.45;;
30287;SDS011;17103;48.316;11.558;2023-07-13T12:23:53;2.10;;;0.68;;
30287;SDS011;17103;48.316;11.558;2023-07-13T12:26:19;6.82;;;0.90;;
30287;SDS011;17103;48.316;11.558;2023-07-13T12:28:49;6.22;;;0.90;;
30287;SDS011;17103;48.316;11.558;2023-07-13T12:31:31;3.17;;;0.90;;
30287;SDS011;17103;48.316;11.558;2023-07-13T12:34:07;1.40;;;0.70;;
30287;SDS011;17103;48.316;11.558;2023-07-13T12:36:35;9.43;;;1.38;;
30287;SDS011;17103;48.316;11.558;2023-07-13T12:39:04;12.30;;;1.48;;
30287;SDS011;17103;48.316;11.558;2023-07-13T12:41:49;1.98;;;0.70;;
30287;SDS011;17103;48.316;11.558;2023-07-13T12:44:23;2.17;;;0.70;;
30287;SDS011;17103;48.316;11.558;2023-07-13T12:46:59;19.52;;;1.50;;
30287;SDS011;17103;48.316;11.558;2023-07-13T12:49:30;3.47;;;1.10;;
30287;SDS011;17103;48.316;11.558;2023-07-13T12:52:03;6.63;;;1.30;;
30287;SDS011;17103;48.316;11.558;2023-07-13T12:54:38;4.13;;;1.00;;
30287;SDS011;17103;48.316;11.558;2023-07-13T12:57:04;2.20;;;0.85;;
30287;SDS011;17103;48.316;11.558;2023-07-13T12:59:34;2.13;;;0.70;;
30287;SDS011;17103;48.316;11.558;2023-07-13T13:02:02;0.95;;;0.70;;
30287;SDS011;17103;48.316;11.558;2023-07-13T13:04:41;5.18;;;1.00;;
30287;SDS011;17103;48.316;11.558;2023-07-13T13:07:08;3.15;;;0.70;;
30287;SDS011;17103;48.316;11.558;2023-07-13T13:09:35;2.65;;;1.15;;
30287;SDS011;17103;48.316;11.558;2023-07-13T13:12:01;4.90;;;1.50;;
30287;SDS011;17103;48.316;11.558;2023-07-13T13:14:26;3.47;;;1.00;;
30287;SDS011;17103;48.316;11.558;2023-07-13T13:16:52;5.07;;;1.00;;
30287;SDS011;17103;48.316;11.558;2023-07-13T13:21:47;3.88;;;1.08;;
30287;SDS011;17103;48.316;11.558;2023-07-13T13:24:13;4.32;;;0.85;;
30287;SDS011;17103;48.316;11.558;2023-07-13T13:26:42;1.77;;;0.98;;
30287;SDS011;17103;48.316;11.558;2023-07-13T13:29:15;2.97;;;0.60;;
30287;SDS011;17103;48.316;11.558;2023-07-13T13:31:43;6.05;;;0.77;;
30287;SDS011;17103;48.316;11.558;2023-07-13T13:34:13;1.30;;;0.80;;
30287;SDS011;17103;48.316;11.558;2023-07-13T13:36:41;3.10;;;1.17;;
30287;SDS011;17103;48.316;11.558;2023-07-13T13:39:22;3.15;;;1.10;;
30287;SDS011;17103;48.316;11.558;2023-07-13T13:41:50;1.75;;;0.90;;
30287;SDS011;17103;48.316;11.558;2023-07-13T13:44:18;1.92;;;0.75;;
30287;SDS011;17103;48.316;11.558;2023-07-13T13:46:45;2.65;;;1.00;;
30287;SDS011;17103;48.316;11.558;2023-07-13T13:49:14;3.55;;;1.13;;
30287;SDS011;17103;48.316;11.558;2023-07-13T13:51:42;2.72;;;1.23;;
30287;SDS011;17103;48.316;11.558;2023-07-13T13:54:15;13.55;;;1.48;;
30287;SDS011;17103;48.316;11.558;2023-07-13T13:56:42;2.95;;;0.80;;
30287;SDS011;17103;48.316;11.558;2023-07-13T13:59:09;1.10;;;0.85;;
30287;SDS011;17103;48.316;11.558;2023-07-13T14:01:35;2.38;;;1.25;;
30287;SDS011;17103;48.316;11.558;2023-07-13T14:04:02;3.50;;;1.65;;
30287;SDS011;17103;48.316;11.558;2023-07-13T14:06:28;2.42;;;1.58;;
30287;SDS011;17103;48.316;11.558;2023-07-13T14:08:54;1.48;;;0.80;;
30287;SDS011;17103;48.316;11.558;2023-07-13T14:11:23;16.23;;;2.70;;
30287;SDS011;17103;48.316;11.558;2023-07-13T14:13:56;1.65;;;0.73;;
30287;SDS011;17103;48.316;11.558;2023-07-13T14:16:25;3.90;;;0.98;;
30287;SDS011;17103;48.316;11.558;2023-07-13T14:18:54;2.72;;;0.80;;
30287;SDS011;17103;48.316;11.558;2023-07-13T14:21:23;4.25;;;0.80;;
30287;SDS011;17103;48.316;11.558;2023-07-13T14:23:49;2.63;;;0.77;;
30287;SDS011;17103;48.316;11.558;2023-07-13T14:26:20;2.58;;;0.82;;
30287;SDS011;17103;48.316;11.558;2023-07-13T14:28:49;1.60;;;0.70;;
30287;SDS011;17103;48.316;11.558;2023-07-13T14:31:18;3.50;;;0.65;;
30287;SDS011;17103;48.316;11.558;2023-07-13T14:33:44;1.52;;;0.50;;
30287;SDS011;17103;48.316;11.558;2023-07-13T14:36:32;3.85;;;0.90;;
30287;SDS011;17103;48.316;11.558;2023-07-13T14:39:05;4.35;;;0.95;;
30287;SDS011;17103;48.316;11.558;2023-07-13T14:41:44;1.85;;;0.65;;
30287;SDS011;17103;48.316;11.558;2023-07-13T14:44:11;1.75;;;0.70;;
30287;SDS011;17103;48.316;11.558;2023-07-13T14:46:38;2.42;;;0.93;;
30287;SDS011;17103;48.316;11.558;2023-07-13T14:49:12;3.63;;;1.30;;
30287;SDS011;17103;48.316;11.558;2023-07-13T14:51:39;3.63;;;0.90;;
30287;SDS011;17103;48.316;11.558;2023-07-13T14:54:05;4.40;;;1.00;;
30287;SDS011;17103;48.316;11.558;2023-07-13T14:56:33;3.42;;;1.10;;
30287;SDS011;17103;48.316;11.558;2023-07-13T14:58:59;1.60;;;0.70;;
30287;SDS011;17103;48.316;11.558;2023-07-13T15:01:25;1.73;;;0.95;;
30287;SDS011;17103;48.316;11.558;2023-07-13T15:03:52;2.20;;;0.98;;
30287;SDS011;17103;48.316;11.558;2023-07-13T15:06:18;2.15;;;0.90;;
30287;SDS011;17103;48.316;11.558;2023-07-13T15:08:44;1.83;;;0.80;;
30287;SDS011;17103;48.316;11.558;2023-07-13T15:11:10;1.40;;;0.90;;
30287;SDS011;17103;48.316;11.558;2023-07-13T15:13:38;1.80;;;0.88;;
30287;SDS011;17103;48.316;11.558;2023-07-13T15:16:26;1.70;;;0.90;;